createdAt,value
2024-01-22T00:00:54.007Z,4.46
2024-01-22T00:10:58.284Z,4.69
2024-01-22T00:21:01.325Z,4.83
2024-01-22T00:31:05.802Z,5.07
2024-01-22T00:41:08.810Z,5.37
2024-01-22T00:51:13.079Z,5.51
2024-01-22T01:01:16.051Z,5.49
2024-01-22T01:11:20.268Z,5.41
2024-01-22T01:21:24.150Z,5.20
2024-01-22T01:31:29.864Z,5.19
2024-01-22T01:41:33.082Z,5.13
2024-01-22T01:51:37.689Z,5.11
2024-01-22T02:01:40.539Z,5.27
2024-01-22T02:11:44.846Z,5.52
2024-01-22T02:21:47.658Z,5.59
2024-01-22T02:31:53.965Z,5.72
2024-01-22T02:41:56.845Z,5.70
2024-01-22T02:52:01.071Z,5.93
2024-01-22T03:02:04.103Z,6.20
2024-01-22T03:12:08.917Z,6.22
2024-01-22T03:22:11.769Z,6.07
2024-01-22T03:32:15.941Z,6.05
2024-01-22T03:42:19.739Z,5.89
2024-01-22T03:52:24.080Z,5.89
2024-01-22T04:02:26.919Z,5.81
2024-01-22T04:12:31.090Z,5.74
2024-01-22T04:22:33.927Z,5.90
2024-01-22T04:32:38.279Z,5.84
2024-01-22T04:42:42.515Z,5.84
2024-01-22T04:52:46.686Z,5.92
2024-01-22T05:02:50.953Z,6.07
2024-01-22T05:12:55.677Z,6.29
2024-01-22T05:22:58.564Z,6.31
2024-01-22T05:33:03.312Z,6.18
2024-01-22T05:43:06.902Z,6.30
2024-01-22T05:53:11.109Z,6.37
2024-01-22T06:03:14.024Z,6.54
2024-01-22T06:13:18.238Z,6.52
2024-01-22T06:23:21.080Z,6.40
2024-01-22T06:33:27.032Z,6.36
2024-01-22T06:43:29.928Z,6.25
2024-01-22T06:53:34.385Z,6.30
2024-01-22T07:03:38.075Z,6.39
2024-01-22T07:13:43.062Z,6.25
2024-01-22T07:23:46.955Z,6.24
2024-01-22T07:33:51.471Z,5.85
2024-01-22T07:43:54.402Z,5.85
2024-01-22T07:53:58.687Z,5.64
2024-01-22T08:04:04.246Z,5.10
2024-01-22T08:14:08.510Z,5.08
2024-01-22T08:24:11.798Z,5.12
2024-01-22T08:34:16.208Z,5.23
2024-01-22T08:44:19.209Z,5.25
2024-01-22T08:54:23.436Z,5.24
2024-01-22T09:04:26.300Z,5.31
2024-01-22T09:14:31.350Z,5.33
2024-01-22T09:24:34.181Z,5.60
2024-01-22T09:34:38.684Z,5.76
2024-01-22T09:44:41.824Z,5.96
2024-01-22T09:54:46.670Z,6.15
2024-01-22T10:04:49.641Z,6.22
2024-01-22T10:14:54.213Z,6.35
2024-01-22T10:25:00.465Z,6.52
2024-01-22T10:35:06.185Z,6.50
2024-01-22T10:45:11.514Z,6.70
2024-01-22T10:55:16.112Z,6.78
2024-01-22T11:05:19.523Z,6.72
2024-01-22T11:15:24.046Z,6.71
2024-01-22T11:25:27.402Z,7.08
2024-01-22T11:35:39.439Z,7.34
2024-01-22T11:45:43.152Z,7.44
2024-01-22T11:56:01.694Z,7.62
2024-01-22T12:06:06.752Z,7.83
2024-01-22T12:16:16.659Z,8.10
2024-01-22T12:26:24.192Z,8.29
2024-01-22T12:36:29.066Z,8.28
2024-01-22T12:46:32.402Z,8.28
2024-01-22T12:56:36.873Z,8.39
2024-01-22T13:06:40.173Z,8.14
2024-01-22T13:16:44.385Z,8.05
2024-01-22T13:26:47.508Z,8.06
2024-01-22T13:36:52.136Z,8.23
2024-01-22T13:46:55.643Z,8.38
2024-01-22T13:57:00.015Z,8.82
2024-01-22T14:07:03.963Z,9.02
2024-01-22T14:17:10.646Z,9.15
2024-01-22T14:27:13.654Z,8.38
2024-01-22T14:37:18.034Z,8.10
2024-01-22T14:47:20.955Z,8.10
2024-01-22T14:57:25.149Z,8.14
2024-01-22T15:07:28.044Z,8.17
2024-01-22T15:17:32.598Z,8.24
2024-01-22T15:27:35.768Z,8.17
2024-01-22T15:37:40.044Z,8.08
2024-01-22T15:47:43.331Z,7.99
2024-01-22T15:57:47.754Z,7.80
2024-01-22T16:07:50.801Z,7.73
2024-01-22T16:17:55.385Z,7.76
2024-01-22T16:27:59.276Z,7.74
2024-01-22T16:38:03.562Z,7.64
2024-01-22T16:48:07.485Z,7.57
2024-01-22T16:58:11.770Z,7.48
2024-01-22T17:08:14.613Z,7.35
2024-01-22T17:18:19.331Z,7.25
2024-01-22T17:28:22.186Z,7.05
2024-01-22T17:38:26.740Z,7.02
2024-01-22T17:48:29.885Z,7.11
2024-01-22T17:58:34.166Z,7.17
2024-01-22T18:08:37.008Z,7.12
2024-01-22T18:18:41.340Z,7.00
2024-01-22T18:28:44.421Z,6.96
2024-01-22T18:38:48.757Z,6.90
2024-01-22T18:48:52.087Z,6.82
2024-01-22T18:59:00.090Z,6.68
2024-01-22T19:09:02.991Z,6.54
2024-01-22T19:19:07.688Z,6.43
2024-01-22T19:29:10.963Z,6.34
2024-01-22T19:39:15.235Z,6.05
2024-01-22T19:49:18.219Z,5.89
2024-01-22T19:59:22.641Z,5.90
2024-01-22T20:09:26.636Z,5.90
2024-01-22T20:19:31.006Z,5.90
2024-01-22T20:29:34.081Z,5.95
2024-01-22T20:39:39.032Z,6.01
2024-01-22T20:49:41.989Z,6.01
2024-01-22T20:59:46.211Z,6.04
2024-01-22T21:09:49.266Z,6.21
2024-01-22T21:19:54.319Z,6.42
2024-01-22T21:29:57.404Z,6.58
2024-01-22T21:40:01.633Z,6.70
2024-01-22T21:50:04.558Z,6.87
2024-01-22T22:00:12.162Z,6.72
2024-01-22T22:10:15.129Z,6.69
2024-01-22T22:20:20.473Z,6.68
2024-01-22T22:30:23.503Z,6.79
2024-01-22T22:40:27.678Z,6.85
2024-01-22T22:50:30.616Z,6.74
2024-01-22T23:00:37.249Z,6.64
2024-01-22T23:10:40.236Z,6.64
2024-01-22T23:20:44.603Z,6.45
2024-01-22T23:30:47.617Z,6.54
2024-01-22T23:40:51.778Z,6.61
2024-01-22T23:50:54.606Z,6.62
